Terminal Aerodrome Forecast
Issued by NWS

Home | Current Version | Previous Version | Graphics & Text | Print | Product List | Glossary On
Versions: 1 2 3 4 5 6 7 8 9 10 11 12 13 14 15 16 17 18
945
FTUS43 KBIS 071345 AAA
TAFJMS
TAF AMD
KJMS 071345Z 0714/0812 29025G35KT P6SM OVC025
     FM071700 32033G46KT 6SM -SHSN BLSN OVC020
     FM080500 33031G43KT P6SM OVC025=

USA.gov is the U.S. government's official web portal to all federal, state and local government web resources and services.